Time;durP1;ratioP1;P1;durP2;ratioP2;P2;SDS_P1;SDS_P2;PMS_P1;PMS_P2;Temp;Humidity;BMP_temperature;BMP_pressure;BME280_temperature;BME280_humidity;BME280_pressure;Samples;Min_cycle;Max_cycle;Signal;HPM_P1;HPM_P2
2022/01/16 00:00:24;;;;;;;26.60;16.02;;;;;;;;;;6271953;22;20056;-64
2022/01/16 00:05:23;;;;;;;26.45;17.13;;;;;;;;;;6282728;22;20018;-65
2022/01/16 00:07:50;;;;;;;27.70;20.38;;;;;;;;;;6274302;22;20049;-64
2022/01/16 00:10:18;;;;;;;27.88;17.35;;;;;;;;;;6273172;22;20073;-64
2022/01/16 00:12:48;;;;;;;22.70;16.45;;;;;;;;;;6272600;22;20006;-67
2022/01/16 00:15:14;;;;;;;27.23;17.23;;;;;;;;;;6273448;22;19999;-63
2022/01/16 00:17:51;;;;;;;25.45;17.80;;;;;;;;;;6273097;22;20038;-65
2022/01/16 00:20:18;;;;;;;30.08;18.42;;;;;;;;;;6275196;22;20003;-64
2022/01/16 00:22:45;;;;;;;29.50;17.15;;;;;;;;;;6273398;22;20474;-65
2022/01/16 00:25:11;;;;;;;28.83;17.20;;;;;;;;;;6271834;22;20011;-64
2022/01/16 00:27:38;;;;;;;20.45;15.65;;;;;;;;;;6271845;22;20004;-64
2022/01/16 00:30:04;;;;;;;24.98;14.85;;;;;;;;;;6273783;22;20054;-64
2022/01/16 00:32:30;;;;;;;24.92;15.13;;;;;;;;;;6272315;22;20012;-64
2022/01/16 00:34:56;;;;;;;24.17;15.38;;;;;;;;;;6273306;22;19998;-64
2022/01/16 00:37:22;;;;;;;26.33;15.65;;;;;;;;;;6271649;22;20000;-63
2022/01/16 00:39:48;;;;;;;21.85;15.68;;;;;;;;;;6273501;22;20007;-64
2022/01/16 00:42:14;;;;;;;21.73;16.20;;;;;;;;;;6272242;22;20004;-68
2022/01/16 00:44:40;;;;;;;27.15;18.30;;;;;;;;;;6273262;22;20004;-64
2022/01/16 00:47:07;;;;;;;25.08;15.52;;;;;;;;;;6272362;22;20007;-64
2022/01/16 00:49:38;;;;;;;17.65;12.23;;;;;;;;;;6272193;22;20395;-65
2022/01/16 00:52:05;;;;;;;14.70;11.15;;;;;;;;;;6274540;22;20374;-64
2022/01/16 00:54:31;;;;;;;17.40;11.65;;;;;;;;;;6272654;22;20000;-64
2022/01/16 00:56:57;;;;;;;15.73;9.82;;;;;;;;;;6273051;22;20390;-64
2022/01/16 00:59:23;;;;;;;16.10;11.13;;;;;;;;;;6271792;22;20070;-64
2022/01/16 01:01:49;;;;;;;17.67;10.18;;;;;;;;;;6271105;22;20004;-64
2022/01/16 01:04:16;;;;;;;18.02;11.02;;;;;;;;;;6273058;22;20019;-64
2022/01/16 01:06:42;;;;;;;20.00;12.30;;;;;;;;;;6272990;22;20000;-64
2022/01/16 01:09:08;;;;;;;16.92;11.05;;;;;;;;;;6271916;22;20425;-64
2022/01/16 01:11:37;;;;;;;17.23;10.02;;;;;;;;;;6272462;22;20334;-64
2022/01/16 01:19:35;;;;;;;20.30;9.93;;;;;;;;;;6206983;22;20033;-64
2022/01/16 01:22:02;;;;;;;19.70;10.23;;;;;;;;;;6272533;22;20502;-64
2022/01/16 01:24:29;;;;;;;21.00;10.82;;;;;;;;;;6275503;22;20006;-64
2022/01/16 01:27:12;;;;;;;13.65;9.77;;;;;;;;;;6272580;22;20029;-64
2022/01/16 01:29:41;;;;;;;16.00;9.52;;;;;;;;;;6272143;22;20003;-64
2022/01/16 01:32:07;;;;;;;19.75;10.70;;;;;;;;;;6272341;22;20011;-63
2022/01/16 01:34:33;;;;;;;15.50;10.55;;;;;;;;;;6272210;22;20079;-63
2022/01/16 01:37:00;;;;;;;18.70;10.25;;;;;;;;;;6273080;22;20006;-64
2022/01/16 01:39:26;;;;;;;18.23;9.50;;;;;;;;;;6272680;22;20000;-63
2022/01/16 01:42:03;;;;;;;22.48;10.38;;;;;;;;;;6273568;22;20035;-64
2022/01/16 01:52:43;;;;;;;13.70;8.30;;;;;;;;;;6272434;22;20018;-64
2022/01/16 01:55:10;;;;;;;14.23;9.02;;;;;;;;;;6272707;22;20031;-64
2022/01/16 01:57:36;;;;;;;12.50;8.52;;;;;;;;;;6275912;22;20070;-64
2022/01/16 02:00:03;;;;;;;14.95;8.77;;;;;;;;;;6271595;22;20022;-64
2022/01/16 02:02:36;;;;;;;11.77;8.10;;;;;;;;;;6272133;22;20010;-64
2022/01/16 02:05:03;;;;;;;12.85;8.63;;;;;;;;;;6272972;22;20034;-64
2022/01/16 02:07:29;;;;;;;14.68;10.35;;;;;;;;;;6273006;22;20011;-64
2022/01/16 02:09:55;;;;;;;15.90;9.60;;;;;;;;;;6271109;22;20335;-64
2022/01/16 02:12:23;;;;;;;15.65;8.18;;;;;;;;;;6271947;22;20003;-64
2022/01/16 02:14:56;;;;;;;12.57;8.60;;;;;;;;;;6272035;22;19999;-64
2022/01/16 02:31:15;;;;;;;15.05;9.25;;;;;;;;;;6271304;22;20035;-64
2022/01/16 02:36:45;;;;;;;19.13;9.82;;;;;;;;;;6272633;22;20123;-63
2022/01/16 02:39:13;;;;;;;19.05;10.55;;;;;;;;;;6272246;22;19999;-64
2022/01/16 02:41:40;;;;;;;16.80;9.35;;;;;;;;;;6270884;22;20068;-63
2022/01/16 02:46:59;;;;;;;13.15;9.13;;;;;;;;;;6225147;22;20011;-64
2022/01/16 02:49:26;;;;;;;14.88;9.65;;;;;;;;;;6271149;22;20007;-62
2022/01/16 02:51:57;;;;;;;15.60;9.95;;;;;;;;;;6272982;22;19996;-63
2022/01/16 02:54:24;;;;;;;13.80;8.93;;;;;;;;;;6270117;22;20014;-63
2022/01/16 02:56:50;;;;;;;19.10;9.98;;;;;;;;;;6273239;22;20385;-63
2022/01/16 02:59:21;;;;;;;12.05;8.63;;;;;;;;;;6271015;22;20010;-63
2022/01/16 03:01:48;;;;;;;16.00;9.70;;;;;;;;;;6272732;22;20020;-66
2022/01/16 03:04:15;;;;;;;16.35;10.48;;;;;;;;;;6271166;22;20524;-63
2022/01/16 03:06:41;;;;;;;15.68;10.13;;;;;;;;;;6272478;22;20000;-62
2022/01/16 03:09:07;;;;;;;15.32;10.45;;;;;;;;;;6271740;22;20074;-62
2022/01/16 03:11:40;;;;;;;16.67;10.85;;;;;;;;;;6270814;22;20024;-63
2022/01/16 03:14:09;;;;;;;14.23;10.63;;;;;;;;;;6271555;22;20003;-63
2022/01/16 03:16:35;;;;;;;14.98;9.80;;;;;;;;;;6270096;22;20016;-63
2022/01/16 03:21:55;;;;;;;16.13;9.93;;;;;;;;;;6271692;22;20069;-62
2022/01/16 03:24:21;;;;;;;17.33;11.23;;;;;;;;;;6271563;22;20007;-62
2022/01/16 03:26:47;;;;;;;18.92;11.52;;;;;;;;;;6271030;22;20011;-63
2022/01/16 03:29:13;;;;;;;17.88;11.40;;;;;;;;;;6272495;22;20000;-63
2022/01/16 03:31:39;;;;;;;18.38;10.60;;;;;;;;;;6271069;22;20016;-62
2022/01/16 03:34:05;;;;;;;18.48;10.85;;;;;;;;;;6270196;22;20091;-62
2022/01/16 03:36:32;;;;;;;17.30;10.68;;;;;;;;;;6271306;22;20034;-63
2022/01/16 03:38:58;;;;;;;18.40;11.45;;;;;;;;;;6271289;22;20004;-62
2022/01/16 03:41:27;;;;;;;17.13;10.73;;;;;;;;;;6270364;22;19996;-62
2022/01/16 03:43:54;;;;;;;17.85;11.55;;;;;;;;;;6270781;22;20003;-63
2022/01/16 03:46:20;;;;;;;18.10;10.70;;;;;;;;;;6271553;22;20094;-63
2022/01/16 03:48:46;;;;;;;15.75;9.80;;;;;;;;;;6271101;22;20019;-63
2022/01/16 03:51:12;;;;;;;18.85;10.85;;;;;;;;;;6271297;22;20011;-63
2022/01/16 03:53:38;;;;;;;14.98;9.50;;;;;;;;;;6273076;22;20453;-62
2022/01/16 03:56:05;;;;;;;15.55;10.55;;;;;;;;;;6267433;22;19999;-63
2022/01/16 03:58:31;;;;;;;17.45;11.13;;;;;;;;;;6271845;22;20300;-64
2022/01/16 04:00:57;;;;;;;19.55;11.57;;;;;;;;;;6270289;22;20498;-63
2022/01/16 04:03:23;;;;;;;18.75;10.38;;;;;;;;;;6272214;22;20011;-62
2022/01/16 04:05:49;;;;;;;14.63;10.00;;;;;;;;;;6271621;22;20010;-63
2022/01/16 04:08:15;;;;;;;15.35;9.98;;;;;;;;;;6270452;22;20004;-63
2022/01/16 04:10:41;;;;;;;15.85;10.40;;;;;;;;;;6272011;22;20003;-63
2022/01/16 04:13:08;;;;;;;14.60;10.35;;;;;;;;;;6270601;22;20007;-63
2022/01/16 04:15:34;;;;;;;16.30;10.55;;;;;;;;;;6270480;22;20057;-63
2022/01/16 04:18:01;;;;;;;17.63;9.43;;;;;;;;;;6271724;22;19999;-63
2022/01/16 04:20:28;;;;;;;24.33;10.68;;;;;;;;;;6270662;22;20031;-66
2022/01/16 04:22:54;;;;;;;16.52;9.82;;;;;;;;;;6272737;22;20007;-64
2022/01/16 04:25:20;;;;;;;21.83;11.23;;;;;;;;;;6273163;22;20000;-63
2022/01/16 04:27:46;;;;;;;17.10;10.32;;;;;;;;;;6273332;22;20250;-64
2022/01/16 04:30:12;;;;;;;16.17;10.57;;;;;;;;;;6273425;22;20146;-64
2022/01/16 04:32:39;;;;;;;16.10;10.23;;;;;;;;;;6272362;22;20020;-63
2022/01/16 04:35:05;;;;;;;17.13;10.25;;;;;;;;;;6272972;22;19996;-63
2022/01/16 04:37:31;;;;;;;18.20;11.40;;;;;;;;;;6276399;22;20000;-63
2022/01/16 04:40:01;;;;;;;24.92;11.18;;;;;;;;;;6272832;22;20002;-63
2022/01/16 04:45:12;;;;;;;17.47;11.03;;;;;;;;;;6272182;22;20022;-63
2022/01/16 04:47:38;;;;;;;15.45;10.25;;;;;;;;;;6275193;22;20423;-63
2022/01/16 04:50:04;;;;;;;19.58;9.95;;;;;;;;;;6271885;22;20011;-67
2022/01/16 04:52:30;;;;;;;16.83;11.93;;;;;;;;;;6274374;22;20418;-64
2022/01/16 04:54:56;;;;;;;14.10;9.80;;;;;;;;;;6271705;22;20050;-64
2022/01/16 04:57:23;;;;;;;17.15;10.73;;;;;;;;;;6273016;22;20075;-64
2022/01/16 04:59:49;;;;;;;18.17;11.43;;;;;;;;;;6272330;22;20014;-64
2022/01/16 05:02:15;;;;;;;21.42;10.30;;;;;;;;;;6272992;22;20484;-64
2022/01/16 05:04:41;;;;;;;19.02;10.60;;;;;;;;;;6270789;22;20008;-64
2022/01/16 05:07:07;;;;;;;19.67;11.85;;;;;;;;;;6274126;22;20007;-64
2022/01/16 05:09:33;;;;;;;15.55;10.90;;;;;;;;;;6271340;22;20389;-64
2022/01/16 05:12:02;;;;;;;17.35;12.55;;;;;;;;;;6273086;22;20003;-64
2022/01/16 05:17:13;;;;;;;15.70;11.30;;;;;;;;;;6273284;22;20018;-65
2022/01/16 05:19:39;;;;;;;16.08;11.93;;;;;;;;;;6272944;22;20006;-64
2022/01/16 05:22:05;;;;;;;22.38;11.43;;;;;;;;;;6273312;22;20011;-65
2022/01/16 05:24:34;;;;;;;20.98;10.98;;;;;;;;;;6272123;22;20039;-65
2022/01/16 05:27:00;;;;;;;21.02;11.18;;;;;;;;;;6273466;22;20027;-65
2022/01/16 05:29:26;;;;;;;19.17;10.27;;;;;;;;;;6271433;22;20061;-64
2022/01/16 05:31:52;;;;;;;13.98;9.95;;;;;;;;;;6272592;22;20019;-65
2022/01/16 05:34:18;;;;;;;17.67;11.02;;;;;;;;;;6271088;22;20000;-64
2022/01/16 05:36:45;;;;;;;18.30;10.88;;;;;;;;;;6273285;22;20083;-65
2022/01/16 05:39:12;;;;;;;17.33;10.93;;;;;;;;;;6272514;22;20066;-64
2022/01/16 05:41:38;;;;;;;21.02;12.00;;;;;;;;;;6272708;22;20330;-64
2022/01/16 05:44:04;;;;;;;15.93;10.95;;;;;;;;;;6272236;22;20326;-64
2022/01/16 05:46:30;;;;;;;21.00;11.50;;;;;;;;;;6271882;22;20261;-64
2022/01/16 05:48:56;;;;;;;19.60;11.85;;;;;;;;;;6272577;22;20012;-70
2022/01/16 05:51:22;;;;;;;16.52;11.07;;;;;;;;;;6272053;22;20333;-65
2022/01/16 05:53:51;;;;;;;20.45;11.35;;;;;;;;;;6270739;22;20042;-65
2022/01/16 05:56:17;;;;;;;17.23;10.23;;;;;;;;;;6271825;22;20004;-65
2022/01/16 05:58:43;;;;;;;17.48;10.85;;;;;;;;;;6273264;22;20007;-65
2022/01/16 06:01:09;;;;;;;16.30;10.45;;;;;;;;;;6270006;22;19999;-64
2022/01/16 06:03:35;;;;;;;20.27;11.55;;;;;;;;;;6278965;22;20077;-64
2022/01/16 06:06:01;;;;;;;19.35;11.25;;;;;;;;;;6272023;22;20000;-64
2022/01/16 06:08:27;;;;;;;18.63;10.95;;;;;;;;;;6273192;22;20004;-66
2022/01/16 06:10:54;;;;;;;19.33;10.63;;;;;;;;;;6271615;22;20434;-65
2022/01/16 06:13:20;;;;;;;18.95;10.68;;;;;;;;;;6272384;22;20043;-64
2022/01/16 06:15:46;;;;;;;19.92;11.27;;;;;;;;;;6272108;22;19999;-65
2022/01/16 06:18:16;;;;;;;21.70;11.25;;;;;;;;;;6273570;22;20037;-65
2022/01/16 06:20:42;;;;;;;17.45;10.95;;;;;;;;;;6272881;22;20010;-65
2022/01/16 06:23:08;;;;;;;19.20;11.55;;;;;;;;;;6272703;22;20007;-64
2022/01/16 06:25:35;;;;;;;21.20;12.43;;;;;;;;;;6271578;22;20477;-65
2022/01/16 06:28:01;;;;;;;21.08;12.05;;;;;;;;;;6272324;22;20004;-65
2022/01/16 06:30:27;;;;;;;18.73;10.77;;;;;;;;;;6276610;22;20011;-62
2022/01/16 06:32:53;;;;;;;23.75;11.93;;;;;;;;;;6272078;22;20007;-62
2022/01/16 06:35:19;;;;;;;21.70;12.15;;;;;;;;;;6270825;22;20079;-65
2022/01/16 06:37:45;;;;;;;19.40;11.80;;;;;;;;;;6272165;22;20030;-64
2022/01/16 06:40:12;;;;;;;22.90;12.52;;;;;;;;;;6272175;22;20075;-65
2022/01/16 06:42:38;;;;;;;20.95;12.30;;;;;;;;;;6271857;22;20053;-65
2022/01/16 06:45:07;;;;;;;19.27;11.93;;;;;;;;;;6272299;22;20008;-69
2022/01/16 06:47:34;;;;;;;20.63;13.23;;;;;;;;;;6271876;22;20003;-64
2022/01/16 06:50:00;;;;;;;17.25;11.68;;;;;;;;;;6272213;22;20000;-65
2022/01/16 06:52:26;;;;;;;28.58;10.95;;;;;;;;;;6272690;22;20003;-64
2022/01/16 06:54:52;;;;;;;16.63;10.23;;;;;;;;;;6272297;22;20077;-63
2022/01/16 06:57:18;;;;;;;18.50;10.45;;;;;;;;;;6271293;22;20031;-63
2022/01/16 06:59:45;;;;;;;18.60;10.02;;;;;;;;;;6270282;22;20034;-64
2022/01/16 07:02:12;;;;;;;18.67;10.65;;;;;;;;;;6271088;22;20479;-63
2022/01/16 07:04:38;;;;;;;13.13;9.57;;;;;;;;;;6271598;22;20019;-64
2022/01/16 07:07:04;;;;;;;11.48;9.10;;;;;;;;;;6270192;22;20000;-64
2022/01/16 07:09:30;;;;;;;18.13;9.80;;;;;;;;;;6271417;22;20008;-63
2022/01/16 07:12:06;;;;;;;15.32;9.93;;;;;;;;;;6273390;22;20083;-64
2022/01/16 07:14:32;;;;;;;13.48;9.10;;;;;;;;;;6271009;22;20555;-67
2022/01/16 07:16:58;;;;;;;15.57;9.50;;;;;;;;;;6272009;22;19999;-63
2022/01/16 07:19:24;;;;;;;18.67;8.80;;;;;;;;;;6270790;22;20427;-63
2022/01/16 07:21:50;;;;;;;15.45;8.63;;;;;;;;;;6272662;22;20359;-63
2022/01/16 07:24:17;;;;;;;16.98;8.77;;;;;;;;;;6270804;22;20000;-64
2022/01/16 07:26:46;;;;;;;14.27;8.40;;;;;;;;;;6272034;22;20002;-63
2022/01/16 07:29:12;;;;;;;12.23;8.73;;;;;;;;;;6270118;22;20497;-63
2022/01/16 07:31:41;;;;;;;13.82;8.20;;;;;;;;;;6271295;22;20011;-65
2022/01/16 07:34:07;;;;;;;10.13;6.85;;;;;;;;;;6270705;22;20022;-64
2022/01/16 07:36:34;;;;;;;12.18;7.63;;;;;;;;;;6272320;22;20049;-63
2022/01/16 07:39:00;;;;;;;15.65;8.50;;;;;;;;;;6270662;22;20000;-65
2022/01/16 07:41:26;;;;;;;11.77;7.25;;;;;;;;;;6272426;22;20065;-63
2022/01/16 07:43:52;;;;;;;8.52;6.05;;;;;;;;;;6271463;22;20033;-64
2022/01/16 07:46:18;;;;;;;9.80;6.80;;;;;;;;;;6271559;22;20149;-64
2022/01/16 07:48:45;;;;;;;7.95;5.50;;;;;;;;;;6271811;22;20003;-64
2022/01/16 07:51:11;;;;;;;7.32;4.90;;;;;;;;;;6269825;22;20304;-64
2022/01/16 07:53:37;;;;;;;6.82;5.03;;;;;;;;;;6271860;22;20053;-64
2022/01/16 07:56:03;;;;;;;8.20;5.78;;;;;;;;;;6271311;22;19995;-64
2022/01/16 07:58:30;;;;;;;10.20;5.30;;;;;;;;;;6273872;22;20000;-64
2022/01/16 08:00:59;;;;;;;9.82;5.00;;;;;;;;;;6273949;22;19999;-64
2022/01/16 08:03:25;;;;;;;8.13;4.78;;;;;;;;;;6273866;22;20339;-64
2022/01/16 08:05:51;;;;;;;7.38;4.57;;;;;;;;;;6274174;22;20000;-63
2022/01/16 08:08:17;;;;;;;7.00;4.82;;;;;;;;;;6273780;22;20500;-63
2022/01/16 08:10:43;;;;;;;9.63;4.22;;;;;;;;;;6276247;22;20010;-64
2022/01/16 08:13:09;;;;;;;7.13;4.18;;;;;;;;;;6278164;22;20010;-67
2022/01/16 08:15:35;;;;;;;5.45;4.28;;;;;;;;;;6278521;22;20326;-64
2022/01/16 08:18:01;;;;;;;7.53;3.72;;;;;;;;;;6275312;22;19999;-64
2022/01/16 08:20:28;;;;;;;6.97;4.40;;;;;;;;;;6273754;22;19996;-63
2022/01/16 08:22:54;;;;;;;7.15;3.85;;;;;;;;;;6272804;22;20052;-63
2022/01/16 08:25:21;;;;;;;7.00;3.72;;;;;;;;;;6274496;22;20007;-65
2022/01/16 08:27:47;;;;;;;9.57;4.00;;;;;;;;;;6279782;22;20061;-63
2022/01/16 08:30:13;;;;;;;9.43;4.50;;;;;;;;;;6273479;22;20862;-63
2022/01/16 08:32:42;;;;;;;10.43;3.70;;;;;;;;;;6270563;22;20342;-64
2022/01/16 08:35:08;;;;;;;7.22;3.72;;;;;;;;;;6270695;22;20023;-63
2022/01/16 08:37:34;;;;;;;8.00;3.80;;;;;;;;;;6273172;22;20004;-64
2022/01/16 08:40:00;;;;;;;8.52;4.30;;;;;;;;;;6277005;22;20462;-63
2022/01/16 08:42:26;;;;;;;7.32;4.22;;;;;;;;;;6271785;22;20100;-63
2022/01/16 08:44:53;;;;;;;8.50;3.83;;;;;;;;;;6273986;22;20000;-64
2022/01/16 08:47:19;;;;;;;9.55;3.83;;;;;;;;;;6272608;22;20015;-64
2022/01/16 08:49:45;;;;;;;8.65;3.47;;;;;;;;;;6274570;22;20015;-70
2022/01/16 08:52:11;;;;;;;8.38;3.72;;;;;;;;;;6272247;22;20057;-63
2022/01/16 08:54:37;;;;;;;10.50;3.97;;;;;;;;;;6274239;22;20008;-64
2022/01/16 08:57:04;;;;;;;7.18;3.30;;;;;;;;;;6272642;22;20000;-64
2022/01/16 08:59:30;;;;;;;5.05;3.28;;;;;;;;;;6273927;22;20075;-64
2022/01/16 09:01:56;;;;;;;7.57;2.88;;;;;;;;;;6273009;22;20014;-63
2022/01/16 09:04:22;;;;;;;9.07;2.90;;;;;;;;;;6273553;22;20000;-63
2022/01/16 09:06:48;;;;;;;9.60;4.82;;;;;;;;;;6273117;22;20011;-65
2022/01/16 09:09:14;;;;;;;6.75;4.95;;;;;;;;;;6272091;22;20027;-63
2022/01/16 09:11:41;;;;;;;13.13;3.47;;;;;;;;;;6273923;22;20004;-64
2022/01/16 09:14:07;;;;;;;7.95;2.92;;;;;;;;;;6274206;22;20027;-63
2022/01/16 09:16:33;;;;;;;9.32;4.20;;;;;;;;;;6274198;22;20051;-63
2022/01/16 09:19:00;;;;;;;9.07;3.70;;;;;;;;;;6273865;22;19996;-63
2022/01/16 09:21:26;;;;;;;5.65;3.20;;;;;;;;;;6273642;22;20003;-64
2022/01/16 09:23:52;;;;;;;7.07;3.60;;;;;;;;;;6273869;22;20011;-63
2022/01/16 09:26:18;;;;;;;4.93;3.03;;;;;;;;;;6270643;22;20007;-63
2022/01/16 09:28:45;;;;;;;9.38;3.15;;;;;;;;;;6272746;22;20004;-63
2022/01/16 09:31:11;;;;;;;6.80;2.90;;;;;;;;;;6276042;22;20035;-63
2022/01/16 09:33:37;;;;;;;11.10;3.90;;;;;;;;;;6271881;22;20446;-63
2022/01/16 09:36:05;;;;;;;8.75;3.33;;;;;;;;;;6272833;22;20079;-63
2022/01/16 09:38:31;;;;;;;10.18;3.03;;;;;;;;;;6273112;22;20441;-63
2022/01/16 09:40:57;;;;;;;10.35;3.25;;;;;;;;;;6277434;22;20003;-64
2022/01/16 09:43:24;;;;;;;9.90;3.55;;;;;;;;;;6272510;22;20008;-64
2022/01/16 09:45:52;;;;;;;9.65;2.88;;;;;;;;;;6273405;22;20046;-64
2022/01/16 09:48:18;;;;;;;10.82;3.83;;;;;;;;;;6272472;22;20003;-64
2022/01/16 09:50:44;;;;;;;6.63;2.83;;;;;;;;;;6274289;22;20003;-64
2022/01/16 09:53:12;;;;;;;7.40;2.80;;;;;;;;;;6271950;22;20011;-64
2022/01/16 09:55:38;;;;;;;12.25;3.75;;;;;;;;;;6272412;22;20027;-63
2022/01/16 09:58:04;;;;;;;6.93;3.00;;;;;;;;;;6265720;22;20076;-63
2022/01/16 10:00:30;;;;;;;7.90;2.90;;;;;;;;;;6266562;22;19999;-68
2022/01/16 10:02:57;;;;;;;10.60;2.80;;;;;;;;;;6266347;22;20274;-64
2022/01/16 10:05:30;;;;;;;8.93;3.33;;;;;;;;;;6266184;22;20718;-64
2022/01/16 10:07:58;;;;;;;7.25;2.67;;;;;;;;;;6267488;22;20423;-67
2022/01/16 10:10:28;;;;;;;7.88;2.70;;;;;;;;;;6270599;22;20011;-63
2022/01/16 10:13:03;;;;;;;5.65;2.72;;;;;;;;;;6265536;22;20379;-65
2022/01/16 10:15:29;;;;;;;10.85;2.90;;;;;;;;;;6266090;22;20617;-63
2022/01/16 10:17:59;;;;;;;10.75;3.17;;;;;;;;;;6266471;22;20006;-63
2022/01/16 10:20:26;;;;;;;8.88;2.97;;;;;;;;;;6264690;22;20071;-64
2022/01/16 10:22:53;;;;;;;7.90;3.00;;;;;;;;;;6266747;22;20337;-63
2022/01/16 10:25:41;;;;;;;9.93;3.67;;;;;;;;;;6264373;22;20078;-63
2022/01/16 10:28:27;;;;;;;7.07;2.55;;;;;;;;;;6267227;22;20016;-64
2022/01/16 10:30:58;;;;;;;8.45;3.80;;;;;;;;;;6272429;22;20031;-63
2022/01/16 10:33:25;;;;;;;7.97;2.97;;;;;;;;;;6265941;22;20011;-63
2022/01/16 10:35:52;;;;;;;6.10;2.75;;;;;;;;;;6267083;22;20066;-63
2022/01/16 10:38:23;;;;;;;9.75;4.00;;;;;;;;;;6268697;22;19999;-65
2022/01/16 10:40:50;;;;;;;12.25;4.72;;;;;;;;;;6266914;22;20007;-64
2022/01/16 10:43:17;;;;;;;6.90;3.42;;;;;;;;;;6266640;22;20007;-64
2022/01/16 10:45:44;;;;;;;9.35;3.40;;;;;;;;;;6266853;22;20011;-65
2022/01/16 10:48:11;;;;;;;9.90;3.55;;;;;;;;;;6266875;22;20054;-65
2022/01/16 10:50:40;;;;;;;13.90;3.13;;;;;;;;;;6268021;22;20089;-65
2022/01/16 10:53:07;;;;;;;17.25;3.75;;;;;;;;;;6266484;22;20008;-65
2022/01/16 10:55:36;;;;;;;7.88;3.10;;;;;;;;;;6265821;22;20014;-65
2022/01/16 10:58:06;;;;;;;12.73;3.92;;;;;;;;;;6267624;22;20004;-64
2022/01/16 11:00:32;;;;;;;13.82;3.40;;;;;;;;;;6268159;22;20008;-64
2022/01/16 11:03:00;;;;;;;11.48;3.15;;;;;;;;;;6266192;22;20428;-65
2022/01/16 11:05:27;;;;;;;9.50;2.92;;;;;;;;;;6265565;22;20003;-65
2022/01/16 11:07:58;;;;;;;11.65;3.35;;;;;;;;;;6267160;22;20007;-64
2022/01/16 11:10:29;;;;;;;13.23;3.92;;;;;;;;;;6266487;22;20004;-65
2022/01/16 11:12:57;;;;;;;11.15;4.22;;;;;;;;;;6265748;22;20008;-63
2022/01/16 11:15:24;;;;;;;8.95;3.45;;;;;;;;;;6266870;22;20004;-63
2022/01/16 11:17:50;;;;;;;14.23;4.13;;;;;;;;;;6266994;22;20003;-63
2022/01/16 11:20:18;;;;;;;11.43;3.10;;;;;;;;;;6265901;22;20004;-64
2022/01/16 11:22:57;;;;;;;12.25;3.53;;;;;;;;;;6266046;22;20008;-63
2022/01/16 11:25:36;;;;;;;12.00;3.50;;;;;;;;;;6264302;22;20003;-64
2022/01/16 11:28:10;;;;;;;10.32;4.53;;;;;;;;;;6264499;22;20069;-63
2022/01/16 11:30:39;;;;;;;12.55;5.82;;;;;;;;;;6267006;22;20484;-64
2022/01/16 11:33:06;;;;;;;12.75;5.82;;;;;;;;;;6265087;22;20018;-64
2022/01/16 11:35:33;;;;;;;13.02;4.07;;;;;;;;;;6266179;22;20007;-63
2022/01/16 11:38:00;;;;;;;9.75;3.45;;;;;;;;;;6266199;22;20000;-64
2022/01/16 11:40:28;;;;;;;12.18;4.97;;;;;;;;;;6268276;22;20000;-64
2022/01/16 11:43:13;;;;;;;10.90;2.95;;;;;;;;;;6266535;22;20304;-65
2022/01/16 11:45:49;;;;;;;13.57;3.95;;;;;;;;;;6267510;22;20007;-66
2022/01/16 11:48:19;;;;;;;14.52;3.88;;;;;;;;;;6268045;22;20011;-65
2022/01/16 11:50:46;;;;;;;13.00;3.65;;;;;;;;;;6266305;22;20011;-65
2022/01/16 11:53:14;;;;;;;18.38;4.90;;;;;;;;;;6265866;22;20031;-66
2022/01/16 11:55:40;;;;;;;13.10;3.55;;;;;;;;;;6265289;22;20088;-64
2022/01/16 11:58:06;;;;;;;16.27;4.57;;;;;;;;;;6266340;22;20007;-65
2022/01/16 12:00:51;;;;;;;15.32;4.00;;;;;;;;;;6266258;22;20070;-64
2022/01/16 12:03:33;;;;;;;12.40;3.80;;;;;;;;;;6265526;22;20020;-64
2022/01/16 12:06:18;;;;;;;13.00;4.38;;;;;;;;;;6266233;22;20226;-65
2022/01/16 12:08:45;;;;;;;15.93;5.72;;;;;;;;;;6265652;22;20008;-65
2022/01/16 12:11:31;;;;;;;13.63;5.15;;;;;;;;;;6269563;22;20380;-64
2022/01/16 12:14:00;;;;;;;17.60;5.65;;;;;;;;;;6266651;22;20007;-64
2022/01/16 12:16:33;;;;;;;12.30;4.47;;;;;;;;;;6265235;22;20022;-64
2022/01/16 12:19:18;;;;;;;14.38;4.65;;;;;;;;;;6266098;22;20079;-66
2022/01/16 12:21:54;;;;;;;10.65;4.80;;;;;;;;;;6265891;22;20026;-66
2022/01/16 12:24:40;;;;;;;13.57;4.05;;;;;;;;;;6265837;22;20014;-66
2022/01/16 12:27:25;;;;;;;12.57;4.15;;;;;;;;;;6265788;22;20079;-66
2022/01/16 12:30:10;;;;;;;9.98;4.93;;;;;;;;;;6268551;22;20438;-65
2022/01/16 12:32:48;;;;;;;11.38;3.95;;;;;;;;;;6263402;22;20024;-68
2022/01/16 12:35:14;;;;;;;12.70;4.55;;;;;;;;;;6266125;22;20008;-68
2022/01/16 12:37:43;;;;;;;10.35;4.80;;;;;;;;;;6265038;22;20004;-66
2022/01/16 12:40:19;;;;;;;11.20;3.60;;;;;;;;;;6267420;22;20026;-66
2022/01/16 12:42:45;;;;;;;12.32;4.13;;;;;;;;;;6269633;22;20093;-66
2022/01/16 12:45:12;;;;;;;15.77;3.42;;;;;;;;;;6264943;22;20008;-65
2022/01/16 12:47:38;;;;;;;9.35;5.45;;;;;;;;;;6267097;22;20018;-67
2022/01/16 12:50:13;;;;;;;11.32;4.20;;;;;;;;;;6267820;22;20014;-66
2022/01/16 12:52:49;;;;;;;12.68;4.30;;;;;;;;;;6268209;22;20577;-67
2022/01/16 12:55:15;;;;;;;9.68;3.75;;;;;;;;;;6266068;22;20008;-67
2022/01/16 12:57:41;;;;;;;12.80;4.25;;;;;;;;;;6266550;22;20034;-66
2022/01/16 13:00:13;;;;;;;14.57;7.28;;;;;;;;;;6266597;22;20536;-67
2022/01/16 13:02:40;;;;;;;11.65;3.38;;;;;;;;;;6267568;22;20000;-67
2022/01/16 13:05:06;;;;;;;11.85;5.43;;;;;;;;;;6266130;22;20031;-66
2022/01/16 13:07:33;;;;;;;10.63;3.20;;;;;;;;;;6267968;22;19999;-66
2022/01/16 13:10:00;;;;;;;14.90;4.18;;;;;;;;;;6268196;22;20004;-66
2022/01/16 13:12:27;;;;;;;10.60;3.55;;;;;;;;;;6267818;22;20131;-66
2022/01/16 13:14:53;;;;;;;11.98;3.42;;;;;;;;;;6267497;22;20672;-66
2022/01/16 13:17:19;;;;;;;10.55;3.50;;;;;;;;;;6267757;22;20003;-66
2022/01/16 13:22:16;;;;;;;10.60;3.42;;;;;;;;;;6268207;22;20804;-66
2022/01/16 13:24:44;;;;;;;10.05;3.22;;;;;;;;;;6267692;22;20349;-67
2022/01/16 13:27:15;;;;;;;7.72;2.90;;;;;;;;;;6267832;22;20075;-65
2022/01/16 13:29:45;;;;;;;9.27;3.58;;;;;;;;;;6270852;22;20004;-66
2022/01/16 13:32:14;;;;;;;12.18;4.40;;;;;;;;;;6267289;22;20015;-66
2022/01/16 13:34:46;;;;;;;14.55;4.97;;;;;;;;;;6268148;22;20346;-66
2022/01/16 13:37:14;;;;;;;13.43;5.32;;;;;;;;;;6267405;22;20006;-66
2022/01/16 13:39:44;;;;;;;11.48;5.93;;;;;;;;;;6270945;22;20066;-66
2022/01/16 13:42:18;;;;;;;8.85;4.32;;;;;;;;;;6271244;22;20008;-66
2022/01/16 13:44:44;;;;;;;10.03;5.03;;;;;;;;;;6267684;22;19999;-67
2022/01/16 13:47:16;;;;;;;12.93;7.35;;;;;;;;;;6266754;22;20155;-67
2022/01/16 13:49:49;;;;;;;13.38;6.78;;;;;;;;;;6267837;22;19999;-67
2022/01/16 13:52:26;;;;;;;11.00;5.40;;;;;;;;;;6267327;22;20042;-67
2022/01/16 13:55:09;;;;;;;13.00;4.55;;;;;;;;;;6266251;22;20079;-66
2022/01/16 13:57:36;;;;;;;9.88;3.60;;;;;;;;;;6271253;22;20068;-67
2022/01/16 14:00:05;;;;;;;11.82;3.92;;;;;;;;;;6266327;22;20007;-66
2022/01/16 14:02:32;;;;;;;11.15;3.90;;;;;;;;;;6266259;22;20034;-67
2022/01/16 14:04:58;;;;;;;9.40;3.75;;;;;;;;;;6266128;22;20018;-66
2022/01/16 14:07:24;;;;;;;9.70;5.00;;;;;;;;;;6266342;22;20014;-66
2022/01/16 14:09:52;;;;;;;9.25;3.40;;;;;;;;;;6267573;22;20057;-66
2022/01/16 14:12:19;;;;;;;11.23;4.00;;;;;;;;;;6266119;22;20011;-65
2022/01/16 14:14:45;;;;;;;13.02;3.90;;;;;;;;;;6265964;22;20074;-65
2022/01/16 14:19:53;;;;;;;18.20;5.38;;;;;;;;;;6264906;22;20034;-65
2022/01/16 14:22:22;;;;;;;10.77;5.65;;;;;;;;;;6263802;22;20011;-64
2022/01/16 14:24:56;;;;;;;9.90;4.32;;;;;;;;;;6264605;22;20036;-65
2022/01/16 14:27:33;;;;;;;10.57;4.68;;;;;;;;;;6263546;22;20529;-65
2022/01/16 14:30:00;;;;;;;7.93;4.10;;;;;;;;;;6264077;22;20011;-65
2022/01/16 14:32:27;;;;;;;11.02;4.65;;;;;;;;;;6264105;22;20027;-65
2022/01/16 14:34:54;;;;;;;9.52;3.95;;;;;;;;;;6265204;22;20007;-64
2022/01/16 14:37:21;;;;;;;12.57;4.07;;;;;;;;;;6264409;22;20000;-64
2022/01/16 14:39:49;;;;;;;12.45;4.55;;;;;;;;;;6264447;22;20103;-65
2022/01/16 14:42:17;;;;;;;9.23;3.50;;;;;;;;;;6264153;22;20004;-65
2022/01/16 14:44:43;;;;;;;9.50;3.28;;;;;;;;;;6264655;22;20480;-65
2022/01/16 14:47:10;;;;;;;11.77;3.80;;;;;;;;;;6263733;22;20000;-65
2022/01/16 14:49:37;;;;;;;9.38;3.47;;;;;;;;;;6264799;22;20339;-65
2022/01/16 14:52:04;;;;;;;9.88;3.53;;;;;;;;;;6264111;22;20003;-64
2022/01/16 14:54:30;;;;;;;13.10;3.92;;;;;;;;;;6264531;22;20028;-66
2022/01/16 14:56:56;;;;;;;8.93;3.75;;;;;;;;;;6264474;22;20435;-64
2022/01/16 14:59:22;;;;;;;12.73;4.20;;;;;;;;;;6263494;22;20082;-64
2022/01/16 15:01:48;;;;;;;15.25;4.78;;;;;;;;;;6264612;22;20004;-65
2022/01/16 15:04:15;;;;;;;14.15;4.20;;;;;;;;;;6263390;22;20497;-64
2022/01/16 15:06:42;;;;;;;9.90;3.97;;;;;;;;;;6263158;22;20007;-64
2022/01/16 15:09:09;;;;;;;12.50;4.50;;;;;;;;;;6263842;22;20030;-64
2022/01/16 15:11:36;;;;;;;11.57;4.22;;;;;;;;;;6264338;22;20338;-65
2022/01/16 15:14:03;;;;;;;9.27;4.22;;;;;;;;;;6264459;22;20012;-63
2022/01/16 15:16:32;;;;;;;12.45;4.57;;;;;;;;;;6263895;22;20004;-63
2022/01/16 15:19:01;;;;;;;14.45;5.00;;;;;;;;;;6264475;22;19999;-63
2022/01/16 15:21:44;;;;;;;11.70;4.22;;;;;;;;;;6267217;22;20619;-65